createdAt,value
2023-04-19T00:01:37.911Z,103172.63
2023-04-19T00:03:39.594Z,103166.44
2023-04-19T00:05:41.668Z,103167.25
2023-04-19T00:07:43.423Z,103170.81
2023-04-19T00:09:44.932Z,103168.13
2023-04-19T00:11:46.375Z,103168.94
2023-04-19T00:13:49.295Z,103169.69
2023-04-19T00:15:50.840Z,103171.41
2023-04-19T00:17:52.391Z,103166.97
2023-04-19T00:19:53.928Z,103161.66
2023-04-19T00:21:55.415Z,103167.72
2023-04-19T00:23:56.883Z,103155.38
2023-04-19T00:25:58.359Z,103161.50
2023-04-19T00:28:00.203Z,103157.03
2023-04-19T00:30:01.992Z,103158.78
2023-04-19T00:32:05.845Z,103157.78
2023-04-19T00:34:07.387Z,103155.97
2023-04-19T00:36:10.611Z,103145.38
2023-04-19T00:38:12.119Z,103144.44
2023-04-19T00:40:13.667Z,103154.00
2023-04-19T00:42:15.112Z,103152.19
2023-04-19T00:44:16.702Z,103153.03
2023-04-19T00:46:18.532Z,103149.41
2023-04-19T00:48:20.162Z,103153.72
2023-04-19T00:50:21.914Z,103147.53
2023-04-19T00:52:23.476Z,103153.63
2023-04-19T00:54:25.602Z,103154.38
2023-04-19T00:56:27.534Z,103153.41
2023-04-19T00:58:31.460Z,103152.50
2023-04-19T01:00:33.503Z,103153.34
2023-04-19T01:02:35.791Z,103153.31
2023-04-19T01:04:37.543Z,103152.38
2023-04-19T01:06:40.659Z,103157.63
2023-04-19T01:08:42.176Z,103151.50
2023-04-19T01:10:43.681Z,103155.88
2023-04-19T01:12:45.180Z,103155.78
2023-04-19T01:14:46.693Z,103154.84
2023-04-19T01:16:48.244Z,103152.19
2023-04-19T01:18:49.741Z,103144.22
2023-04-19T01:20:52.012Z,103148.56
2023-04-19T01:22:53.589Z,103147.63
2023-04-19T01:24:55.048Z,103150.16
2023-04-19T01:26:56.507Z,103149.22
2023-04-19T01:28:58.032Z,103144.69
2023-04-19T01:30:59.761Z,103144.63
2023-04-19T01:33:01.332Z,103154.16
2023-04-19T01:35:03.097Z,103154.06
2023-04-19T01:37:04.577Z,103156.63
2023-04-19T01:39:06.115Z,103152.13
2023-04-19T01:41:07.983Z,103151.19
2023-04-19T01:43:13.132Z,103146.72
2023-04-19T01:45:14.638Z,103145.81
2023-04-19T01:47:16.150Z,103150.13
2023-04-19T01:49:17.596Z,103148.28
2023-04-19T01:51:21.710Z,103150.81
2023-04-19T01:53:23.175Z,103154.28
2023-04-19T01:55:24.964Z,103144.56
2023-04-19T01:57:26.440Z,103146.25
2023-04-19T01:59:27.916Z,103149.69
2023-04-19T02:01:29.496Z,103143.44
2023-04-19T02:03:31.125Z,103146.81
2023-04-19T02:05:32.809Z,103141.53
2023-04-19T02:07:34.749Z,103150.22
2023-04-19T02:09:37.357Z,103151.88
2023-04-19T02:11:38.942Z,103150.03
2023-04-19T02:13:41.762Z,103153.44
2023-04-19T02:15:43.222Z,103153.38
2023-04-19T02:17:46.817Z,103153.19
2023-04-19T02:19:48.270Z,103150.56
2023-04-19T02:21:49.831Z,103152.28
2023-04-19T02:23:51.324Z,103151.28
2023-04-19T02:25:53.704Z,103148.56
2023-04-19T02:27:55.335Z,103152.84
2023-04-19T02:29:56.909Z,103143.16
2023-04-19T02:31:58.433Z,103151.00
2023-04-19T02:33:59.932Z,103147.41
2023-04-19T02:36:01.408Z,103153.41
2023-04-19T02:38:03.851Z,103149.03
2023-04-19T02:40:06.024Z,103154.25
2023-04-19T02:42:07.477Z,103151.53
2023-04-19T02:44:08.926Z,103156.69
2023-04-19T02:46:10.555Z,103154.88
2023-04-19T02:48:12.111Z,103144.34
2023-04-19T02:50:15.023Z,103147.66
2023-04-19T02:52:16.680Z,103146.72
2023-04-19T02:54:18.217Z,103148.28
2023-04-19T02:56:19.684Z,103147.31
2023-04-19T02:58:21.230Z,103145.50
2023-04-19T03:00:22.710Z,103149.72
2023-04-19T03:02:24.466Z,103147.97
2023-04-19T03:04:25.985Z,103152.22
2023-04-19T03:06:27.477Z,103146.06
2023-04-19T03:08:29.400Z,103151.22
2023-04-19T03:10:30.911Z,103154.69
2023-04-19T03:12:32.380Z,103148.41
2023-04-19T03:14:34.160Z,103145.63
2023-04-19T03:16:35.649Z,103149.06
2023-04-19T03:18:37.128Z,103147.22
2023-04-19T03:20:38.751Z,103147.19
2023-04-19T03:22:40.254Z,103146.22
2023-04-19T03:24:41.852Z,103140.84
2023-04-19T03:26:43.303Z,103138.22
2023-04-19T03:28:44.786Z,103138.13
2023-04-19T03:30:46.328Z,103141.59
2023-04-19T03:32:48.227Z,103144.91
2023-04-19T03:34:49.736Z,103138.78
2023-04-19T03:36:51.210Z,103143.03
2023-04-19T03:38:52.791Z,103143.81
2023-04-19T03:40:56.020Z,103146.31
2023-04-19T03:42:57.476Z,103140.06
2023-04-19T03:44:58.930Z,103145.25
2023-04-19T03:47:00.431Z,103140.72
2023-04-19T03:49:02.025Z,103145.03
2023-04-19T03:51:03.678Z,103134.56
2023-04-19T03:53:07.974Z,103143.22
2023-04-19T03:55:10.785Z,103141.34
2023-04-19T03:57:15.132Z,103145.63
2023-04-19T03:59:16.581Z,103140.22
2023-04-19T04:01:21.665Z,103147.22
2023-04-19T04:03:23.234Z,103137.50
2023-04-19T04:05:28.428Z,103136.63
2023-04-19T04:07:29.932Z,103139.13
2023-04-19T04:09:31.455Z,103141.72
2023-04-19T04:11:33.003Z,103144.19
2023-04-19T04:13:34.450Z,103144.06
2023-04-19T04:15:36.232Z,103142.34
2023-04-19T04:17:37.739Z,103145.75
2023-04-19T04:19:39.224Z,103139.63
2023-04-19T04:21:40.942Z,103143.94
2023-04-19T04:23:42.420Z,103147.44
2023-04-19T04:25:43.873Z,103150.84
2023-04-19T04:27:45.658Z,103145.53
2023-04-19T04:29:47.343Z,103151.66
2023-04-19T04:31:48.847Z,103149.88
2023-04-19T04:33:50.988Z,103153.28
2023-04-19T04:35:53.536Z,103148.94
2023-04-19T04:37:55.064Z,103150.72
2023-04-19T04:39:56.602Z,103154.28
2023-04-19T04:41:58.063Z,103153.34
2023-04-19T04:44:12.021Z,103148.06
2023-04-19T04:46:14.239Z,103146.28
2023-04-19T04:48:16.168Z,103152.41
2023-04-19T04:50:17.834Z,103154.03
2023-04-19T04:52:19.298Z,103158.38
2023-04-19T04:54:20.777Z,103153.97
2023-04-19T04:56:22.338Z,103156.53
2023-04-19T04:58:23.832Z,103152.16
2023-04-19T05:00:25.620Z,103157.38
2023-04-19T05:02:27.213Z,103147.69
2023-04-19T05:04:28.835Z,103148.50
2023-04-19T05:06:30.290Z,103155.56
2023-04-19T05:08:31.814Z,103152.03
2023-04-19T05:10:33.321Z,103149.47
2023-04-19T05:12:34.813Z,103154.72
2023-04-19T05:14:36.301Z,103149.44
2023-04-19T05:16:37.857Z,103151.16
2023-04-19T05:18:39.360Z,103151.09
2023-04-19T05:20:40.872Z,103153.78
2023-04-19T05:22:42.334Z,103150.22
2023-04-19T05:24:43.776Z,103145.88
2023-04-19T05:26:45.248Z,103146.72
2023-04-19T05:28:46.854Z,103140.59
2023-04-19T05:30:48.328Z,103147.69
2023-04-19T05:32:50.001Z,103150.41
2023-04-19T05:34:51.573Z,103141.72
2023-04-19T05:36:53.050Z,103149.63
2023-04-19T05:38:54.525Z,103150.56
2023-04-19T05:40:56.059Z,103151.47
2023-04-19T05:42:57.509Z,103148.09
2023-04-19T05:44:59.026Z,103152.56
2023-04-19T05:47:00.745Z,103152.56
2023-04-19T05:49:02.628Z,103149.22
2023-04-19T05:51:04.233Z,103148.38
2023-04-19T05:53:05.835Z,103152.81
2023-04-19T05:55:07.678Z,103151.97
2023-04-19T05:57:09.203Z,103150.31
2023-04-19T05:59:11.598Z,103145.94
2023-04-19T06:01:13.664Z,103142.44
2023-04-19T06:03:15.339Z,103150.44
2023-04-19T06:05:17.240Z,103153.94
2023-04-19T06:07:30.903Z,103147.13
2023-04-19T06:09:33.417Z,103145.53
2023-04-19T06:11:42.786Z,103148.31
2023-04-19T06:13:50.891Z,103141.47
2023-04-19T06:15:52.450Z,103146.81
2023-04-19T06:17:54.080Z,103144.28
2023-04-19T06:19:55.743Z,103148.84
2023-04-19T06:21:57.298Z,103142.88
2023-04-19T06:23:58.854Z,103149.94
2023-04-19T06:26:00.524Z,103156.19
2023-04-19T06:28:02.055Z,103147.59
2023-04-19T06:30:04.157Z,103153.88
2023-04-19T06:32:05.645Z,103149.66
2023-04-19T06:34:07.121Z,103149.84
2023-04-19T06:36:08.953Z,103143.91
2023-04-19T06:38:10.465Z,103148.47
2023-04-19T06:40:12.138Z,103144.22
2023-04-19T06:42:13.814Z,103139.97
2023-04-19T06:44:15.553Z,103141.88
2023-04-19T06:46:17.242Z,103143.72
2023-04-19T06:48:18.773Z,103143.72
2023-04-19T06:50:20.706Z,103149.00
2023-04-19T06:52:22.324Z,103140.34
2023-04-19T06:54:24.049Z,103150.06
2023-04-19T06:56:45.939Z,103143.16
2023-04-19T06:58:47.434Z,103146.72
2023-04-19T07:00:48.894Z,103145.94
2023-04-19T07:02:51.050Z,103144.47
2023-04-19T07:04:52.753Z,103141.91
2023-04-19T07:06:54.300Z,103141.09
2023-04-19T07:08:55.780Z,103136.84
2023-04-19T07:10:57.296Z,103139.56
2023-04-19T07:12:58.772Z,103140.59
2023-04-19T07:15:00.348Z,103129.28
2023-04-19T07:17:03.717Z,103138.06
2023-04-19T07:19:05.254Z,103127.53
2023-04-19T07:21:06.753Z,103128.50
2023-04-19T07:23:08.196Z,103131.31
2023-04-19T07:25:10.440Z,103128.06
2023-04-19T07:27:12.146Z,103127.38
2023-04-19T07:29:13.645Z,103132.00
2023-04-19T07:31:16.807Z,103118.22
2023-04-19T07:33:18.477Z,103124.44
2023-04-19T07:35:20.127Z,103117.44
2023-04-19T07:37:21.654Z,103118.41
2023-04-19T07:39:23.196Z,103106.28
2023-04-19T07:41:24.697Z,103107.34
2023-04-19T07:43:26.948Z,103111.84
2023-04-19T07:45:30.729Z,103106.78
2023-04-19T07:47:32.587Z,103106.13
2023-04-19T07:49:34.555Z,103106.19
2023-04-19T07:51:36.147Z,103101.97
2023-04-19T07:53:39.961Z,103109.97
2023-04-19T07:55:41.399Z,103101.25
2023-04-19T07:57:48.288Z,103103.16
2023-04-19T07:59:49.800Z,103099.78
2023-04-19T08:01:51.444Z,103100.84
2023-04-19T08:03:53.198Z,103105.34
2023-04-19T08:05:54.993Z,103096.69
2023-04-19T08:07:57.071Z,103089.94
2023-04-19T08:09:58.578Z,103085.69
2023-04-19T08:12:01.259Z,103089.31
2023-04-19T08:14:26.829Z,103081.47
2023-04-19T08:16:56.279Z,103078.03
2023-04-19T08:18:46.480Z,103075.50
2023-04-19T08:20:48.368Z,103076.47
2023-04-19T08:22:50.060Z,103072.25
2023-04-19T08:24:52.020Z,103074.91
2023-04-19T08:26:54.261Z,103072.31
2023-04-19T08:28:55.964Z,103058.44
2023-04-19T08:30:59.146Z,103062.09
2023-04-19T08:33:01.379Z,103057.84
2023-04-19T08:35:03.839Z,103062.28
2023-04-19T08:37:07.336Z,103053.56
2023-04-19T08:39:24.933Z,103055.44
2023-04-19T08:41:33.160Z,103051.19
2023-04-19T08:43:38.098Z,103043.41
2023-04-19T08:45:41.253Z,103034.75
2023-04-19T08:49:53.713Z,103037.59
2023-04-19T08:52:08.103Z,103031.56
2023-04-19T08:54:10.910Z,103026.47
2023-04-19T08:56:24.054Z,103018.63
2023-04-19T08:58:45.825Z,103041.50
2023-04-19T09:00:54.510Z,103038.94
2023-04-19T09:02:56.262Z,103021.31
2023-04-19T09:04:58.154Z,103027.56
2023-04-19T09:06:59.819Z,103020.63
2023-04-19T09:09:43.051Z,103017.22
2023-04-19T09:11:47.745Z,103025.13
2023-04-19T09:13:50.000Z,103018.09
2023-04-19T09:15:53.901Z,103024.34
2023-04-19T09:18:28.987Z,103003.28
2023-04-19T09:20:40.305Z,103005.97
2023-04-19T09:22:41.848Z,103004.28
2023-04-19T09:26:57.890Z,103018.56
2023-04-19T09:29:04.910Z,103010.69
2023-04-19T09:31:33.202Z,102997.53
2023-04-19T09:33:39.410Z,103005.44
2023-04-19T09:35:48.020Z,102999.28
2023-04-19T09:38:05.825Z,103000.19
2023-04-19T09:40:24.809Z,102990.53
2023-04-19T09:43:04.309Z,102974.69
2023-04-19T09:47:25.562Z,102979.22
2023-04-19T09:49:41.805Z,102978.38
2023-04-19T09:51:56.623Z,102980.25
2023-04-19T09:53:58.261Z,102965.28
2023-04-19T09:56:02.368Z,102961.84
2023-04-19T09:58:04.420Z,102953.94
2023-04-19T10:00:08.963Z,102961.91
2023-04-19T10:02:11.872Z,102950.47
2023-04-19T10:04:32.708Z,102960.16
2023-04-19T10:06:58.451Z,102947.00
2023-04-19T10:08:59.524Z,102943.47
2023-04-19T10:11:02.563Z,102944.34
2023-04-19T10:13:19.284Z,102939.06
2023-04-19T10:15:23.399Z,102939.06
2023-04-19T10:17:25.937Z,102934.66
2023-04-19T10:19:28.972Z,102932.03
2023-04-19T10:21:31.870Z,102925.84
2023-04-19T10:23:33.780Z,102917.94
2023-04-19T10:25:38.429Z,102911.75
2023-04-19T10:27:41.949Z,102909.13
2023-04-19T10:29:59.648Z,102903.84
2023-04-19T10:32:05.158Z,102902.06
2023-04-19T10:34:06.660Z,102902.06
2023-04-19T10:36:14.844Z,102902.97
2023-04-19T10:38:16.571Z,102892.34
2023-04-19T10:40:57.051Z,102888.81
2023-04-19T10:43:13.538Z,102888.78
2023-04-19T10:45:34.944Z,102870.19
2023-04-19T10:47:45.522Z,102872.75
2023-04-19T10:49:47.177Z,102878.84
2023-04-19T10:51:54.881Z,102880.50
2023-04-19T10:54:01.835Z,102870.75
2023-04-19T10:56:03.392Z,102870.63
2023-04-19T10:58:06.476Z,102866.97
2023-04-19T11:00:21.534Z,102856.13
2023-04-19T11:02:23.183Z,102854.19
2023-04-19T11:04:58.087Z,102858.47
2023-04-19T11:07:07.280Z,102853.00
2023-04-19T11:09:10.722Z,102848.31
2023-04-19T11:11:13.562Z,102837.31
2023-04-19T11:13:16.049Z,102855.75
2023-04-19T11:15:21.723Z,102843.00
2023-04-19T11:17:32.033Z,102844.16
2023-04-19T11:19:33.698Z,102842.41
2023-04-19T11:21:40.911Z,102830.88
2023-04-19T11:23:42.418Z,102824.53
2023-04-19T11:25:45.197Z,102835.38
2023-04-19T11:27:48.879Z,102818.16
2023-04-19T11:29:50.473Z,102821.28
2023-04-19T11:31:52.185Z,102823.66
2023-04-19T11:33:54.148Z,102812.13
2023-04-19T11:35:55.732Z,102802.53
2023-04-19T11:37:59.041Z,102801.13
2023-04-19T11:40:02.113Z,102803.09
2023-04-19T11:42:05.226Z,102785.91
2023-04-19T11:44:19.791Z,102799.75
2023-04-19T11:46:21.415Z,102788.03
2023-04-19T11:48:22.930Z,102796.69
2023-04-19T11:50:38.815Z,102785.59
2023-04-19T11:52:40.486Z,102778.81
2023-04-19T11:54:42.190Z,102785.81
2023-04-19T11:56:59.135Z,102775.31
2023-04-19T11:59:00.817Z,102778.13
2023-04-19T12:01:06.580Z,102778.69
2023-04-19T12:03:08.807Z,102777.19
2023-04-19T12:05:15.576Z,102773.03
2023-04-19T12:07:17.172Z,102770.34
2023-04-19T12:09:22.895Z,102769.06
2023-04-19T12:11:41.895Z,102779.16
2023-04-19T12:13:44.588Z,102771.50
2023-04-19T12:15:46.918Z,102774.97
2023-04-19T12:17:59.557Z,102773.47
2023-04-19T12:20:01.137Z,102768.47
2023-04-19T12:22:09.675Z,102767.88
2023-04-19T12:24:11.026Z,102766.13
2023-04-19T12:26:12.618Z,102753.56
2023-04-19T12:28:15.455Z,102754.69
2023-04-19T12:30:16.993Z,102746.53
2023-04-19T12:32:18.744Z,102749.72
2023-04-19T12:34:20.888Z,102747.91
2023-04-19T12:36:22.443Z,102757.09
2023-04-19T12:38:23.944Z,102745.22
2023-04-19T12:40:26.611Z,102743.19
2023-04-19T12:42:28.035Z,102754.19
2023-04-19T12:44:29.484Z,102749.28
2023-04-19T12:46:31.234Z,102744.81
2023-04-19T12:48:32.826Z,102748.91
2023-04-19T12:50:34.351Z,102733.97
2023-04-19T12:52:36.131Z,102744.09
2023-04-19T12:54:37.589Z,102744.09
2023-04-19T12:56:39.145Z,102738.88
2023-04-19T12:58:40.682Z,102737.41
2023-04-19T13:00:42.862Z,102744.66
2023-04-19T13:02:44.532Z,102709.97
2023-04-19T13:04:46.268Z,102731.41
2023-04-19T13:06:47.866Z,102733.22
2023-04-19T13:08:49.695Z,102728.84
2023-04-19T13:10:52.413Z,102731.44
2023-04-19T13:12:53.874Z,102729.13
2023-04-19T13:14:55.455Z,102728.34
2023-04-19T13:16:56.940Z,102723.81
2023-04-19T13:18:58.578Z,102716.97
2023-04-19T13:21:00.135Z,102721.47
2023-04-19T13:23:01.588Z,102725.06
2023-04-19T13:25:03.930Z,102722.25
2023-04-19T13:27:08.601Z,102705.63
2023-04-19T13:29:10.535Z,102703.22
2023-04-19T13:31:12.205Z,102714.22
2023-04-19T13:33:13.773Z,102695.66
2023-04-19T13:35:15.245Z,102702.16
2023-04-19T13:37:16.928Z,102708.00
2023-04-19T13:39:18.394Z,102699.31
2023-04-19T13:41:20.583Z,102704.63
2023-04-19T13:43:22.114Z,102699.06
2023-04-19T13:45:23.634Z,102693.25
2023-04-19T13:47:25.177Z,102698.38
2023-04-19T13:49:26.720Z,102702.56
2023-04-19T13:51:35.926Z,102692.22
2023-04-19T13:53:48.290Z,102696.06
2023-04-19T13:55:49.911Z,102689.09
2023-04-19T13:57:51.382Z,102685.41
2023-04-19T13:59:52.926Z,102694.47
2023-04-19T14:01:55.985Z,102697.38
2023-04-19T14:03:57.806Z,102692.31
2023-04-19T14:05:59.428Z,102686.63
2023-04-19T14:08:00.994Z,102694.16
2023-04-19T14:10:02.507Z,102699.88
2023-04-19T14:12:04.550Z,102690.38
2023-04-19T14:14:06.397Z,102686.13
2023-04-19T14:16:08.145Z,102694.16
2023-04-19T14:18:09.774Z,102688.66
2023-04-19T14:20:11.541Z,102698.34
2023-04-19T14:22:13.045Z,102694.09
2023-04-19T14:24:14.891Z,102690.59
2023-04-19T14:26:16.525Z,102680.94
2023-04-19T14:28:18.512Z,102691.88
2023-04-19T14:30:20.752Z,102686.56
2023-04-19T14:32:26.622Z,102678.59
2023-04-19T14:34:28.789Z,102687.38
2023-04-19T14:36:30.250Z,102676.72
2023-04-19T14:38:32.534Z,102686.44
2023-04-19T14:40:34.016Z,102681.34
2023-04-19T14:42:35.550Z,102674.41
2023-04-19T14:44:37.382Z,102669.22
2023-04-19T14:46:38.840Z,102661.06
2023-04-19T14:48:40.437Z,102657.63
2023-04-19T14:50:41.914Z,102656.78
2023-04-19T14:52:43.402Z,102660.41
2023-04-19T14:54:45.386Z,102654.38
2023-04-19T14:56:47.037Z,102667.00
2023-04-19T14:58:48.503Z,102650.28
2023-04-19T15:00:49.962Z,102656.63
2023-04-19T15:02:51.585Z,102645.91
2023-04-19T15:04:53.954Z,102644.16
2023-04-19T15:06:55.560Z,102648.53
2023-04-19T15:08:57.136Z,102643.38
2023-04-19T15:10:59.013Z,102657.69
2023-04-19T15:13:00.489Z,102650.47
2023-04-19T15:15:02.051Z,102653.09
2023-04-19T15:17:04.000Z,102660.97
2023-04-19T15:19:07.436Z,102656.72
2023-04-19T15:21:09.163Z,102651.31
2023-04-19T15:23:10.642Z,102655.53
2023-04-19T15:25:12.098Z,102648.25
2023-04-19T15:27:13.554Z,102659.06
2023-04-19T15:29:15.572Z,102659.13
2023-04-19T15:31:17.686Z,102656.44
2023-04-19T15:33:19.266Z,102654.66
2023-04-19T15:35:21.419Z,102655.75
2023-04-19T15:37:22.943Z,102653.31
2023-04-19T15:39:25.340Z,102648.09
2023-04-19T15:41:26.949Z,102650.66
2023-04-19T15:43:28.458Z,102646.91
2023-04-19T15:45:30.048Z,102652.09
2023-04-19T15:47:31.549Z,102652.09
2023-04-19T15:49:33.059Z,102658.38
2023-04-19T15:51:34.521Z,102654.91
2023-04-19T15:53:36.230Z,102651.41
2023-04-19T15:55:38.985Z,102650.69
2023-04-19T15:57:40.474Z,102653.66
2023-04-19T15:59:41.945Z,102640.56
2023-04-19T16:01:43.458Z,102640.66
2023-04-19T16:03:45.192Z,102658.34
2023-04-19T16:05:46.821Z,102656.56
2023-04-19T16:07:48.378Z,102649.63
2023-04-19T16:09:49.883Z,102645.41
2023-04-19T16:11:51.363Z,102655.28
2023-04-19T16:13:52.899Z,102652.72
2023-04-19T16:15:54.497Z,102652.75
2023-04-19T16:17:55.988Z,102655.59
2023-04-19T16:19:57.818Z,102661.06
2023-04-19T16:22:02.057Z,102670.84
2023-04-19T16:24:03.597Z,102665.56
2023-04-19T16:26:05.191Z,102660.34
2023-04-19T16:28:06.877Z,102662.19
2023-04-19T16:30:12.021Z,102668.47
2023-04-19T16:32:13.529Z,102669.47
2023-04-19T16:34:15.153Z,102663.31
2023-04-19T16:36:16.913Z,102667.84
2023-04-19T16:38:18.378Z,102672.38
2023-04-19T16:40:21.649Z,102668.94
2023-04-19T16:42:23.106Z,102670.78
2023-04-19T16:44:24.618Z,102668.22
2023-04-19T16:46:26.182Z,102660.25
2023-04-19T16:48:27.743Z,102665.63
2023-04-19T16:50:29.284Z,102651.47
2023-04-19T16:52:32.171Z,102662.16
2023-04-19T16:54:33.695Z,102659.59
2023-04-19T16:56:35.229Z,102662.31
2023-04-19T16:58:36.862Z,102667.72
2023-04-19T17:00:38.361Z,102660.69
2023-04-19T17:02:40.047Z,102659.84
2023-04-19T17:04:41.893Z,102658.09
2023-04-19T17:06:43.761Z,102661.69
2023-04-19T17:08:45.255Z,102653.75
2023-04-19T17:10:46.727Z,102646.69
2023-04-19T17:12:48.716Z,102651.97
2023-04-19T17:14:50.388Z,102648.41
2023-04-19T17:16:51.862Z,102653.75
2023-04-19T17:18:56.470Z,102650.22
2023-04-19T17:20:58.415Z,102648.47
2023-04-19T17:22:59.877Z,102652.00
2023-04-19T17:25:02.256Z,102655.59
2023-04-19T17:27:03.897Z,102647.69
2023-04-19T17:29:05.706Z,102642.41
2023-04-19T17:31:08.089Z,102652.19
2023-04-19T17:33:09.625Z,102646.06
2023-04-19T17:35:11.230Z,102646.97
2023-04-19T17:37:12.715Z,102648.75
2023-04-19T17:39:14.367Z,102647.94
2023-04-19T17:41:16.410Z,102641.84
2023-04-19T17:43:18.017Z,102667.56
2023-04-19T17:45:19.628Z,102647.38
2023-04-19T17:47:21.169Z,102648.31
2023-04-19T17:49:22.892Z,102656.34
2023-04-19T17:51:24.397Z,102648.47
2023-04-19T17:53:25.864Z,102648.50
2023-04-19T17:55:28.604Z,102652.97
2023-04-19T17:57:31.956Z,102653.94
2023-04-19T17:59:33.496Z,102646.88
2023-04-19T18:01:35.303Z,102644.22
2023-04-19T18:03:37.274Z,102639.84
2023-04-19T18:05:40.001Z,102645.19
2023-04-19T18:07:41.572Z,102643.47
2023-04-19T18:09:43.157Z,102651.44
2023-04-19T18:11:45.062Z,102646.16
2023-04-19T18:13:46.616Z,102639.13
2023-04-19T18:15:48.114Z,102636.50
2023-04-19T18:17:49.681Z,102641.81
2023-04-19T18:19:51.279Z,102642.72
2023-04-19T18:21:52.725Z,102647.16
2023-04-19T18:23:57.098Z,102641.00
2023-04-19T18:26:02.256Z,102643.66
2023-04-19T18:28:04.479Z,102646.28
2023-04-19T18:30:06.942Z,102648.06
2023-04-19T18:32:08.504Z,102653.38
2023-04-19T18:34:12.357Z,102650.75
2023-04-19T18:36:14.337Z,102645.47
2023-04-19T18:38:15.849Z,102653.44
2023-04-19T18:40:17.753Z,102656.97
2023-04-19T18:42:19.230Z,102658.75
2023-04-19T18:44:44.040Z,102651.72
2023-04-19T18:46:42.451Z,102658.75
2023-04-19T18:48:43.948Z,102661.41
2023-04-19T18:50:45.719Z,102663.16
2023-04-19T18:52:47.204Z,102667.59
2023-04-19T18:54:48.785Z,102666.72
2023-04-19T18:57:19.152Z,102667.59
2023-04-19T18:59:14.003Z,102669.38
2023-04-19T19:01:15.836Z,102672.00
2023-04-19T19:03:43.871Z,102674.63
2023-04-19T19:05:39.094Z,102680.78
2023-04-19T19:07:41.634Z,102687.84
2023-04-19T19:09:55.028Z,102679.91
2023-04-19T19:11:57.598Z,102678.16
2023-04-19T19:13:59.090Z,102691.34
2023-04-19T19:16:00.707Z,102699.28
2023-04-19T19:18:03.325Z,102686.94
2023-04-19T19:20:06.788Z,102689.59
2023-04-19T19:22:22.293Z,102690.47
2023-04-19T19:24:28.777Z,102692.22
2023-04-19T19:26:30.266Z,102689.56
2023-04-19T19:28:31.819Z,102687.81
2023-04-19T19:30:34.625Z,102687.81
2023-04-19T19:32:36.235Z,102683.41
2023-04-19T19:34:51.284Z,102690.44
2023-04-19T19:36:56.792Z,102682.47
2023-04-19T19:38:58.322Z,102679.84
2023-04-19T19:41:48.917Z,102687.75
2023-04-19T19:43:21.328Z,102679.84
2023-04-19T19:45:23.369Z,102672.81
2023-04-19T19:47:27.390Z,102671.91
2023-04-19T19:49:28.982Z,102673.69
2023-04-19T19:51:52.949Z,102671.91
2023-04-19T19:53:52.081Z,102671.03
2023-04-19T19:55:53.612Z,102669.25
2023-04-19T20:00:18.033Z,102670.16
2023-04-19T20:02:21.896Z,102668.34
2023-04-19T20:04:24.208Z,102669.22
2023-04-19T20:07:15.552Z,102661.28
2023-04-19T20:08:49.926Z,102660.38
2023-04-19T20:10:51.496Z,102656.84
2023-04-19T20:12:52.978Z,102657.75
2023-04-19T20:14:54.503Z,102647.19
2023-04-19T20:16:56.450Z,102649.81
2023-04-19T20:18:57.913Z,102650.69
2023-04-19T20:20:59.482Z,102645.38
2023-04-19T20:23:00.952Z,102636.56
2023-04-19T20:25:02.492Z,102643.59
2023-04-19T20:27:04.137Z,102639.19
2023-04-19T20:29:05.979Z,102628.63
2023-04-19T20:31:07.451Z,102628.63
2023-04-19T20:33:09.141Z,102630.38
2023-04-19T20:35:12.046Z,102626.81
2023-04-19T20:37:13.806Z,102629.47
2023-04-19T20:39:15.654Z,102625.91
2023-04-19T20:41:18.435Z,102624.16
2023-04-19T20:43:20.022Z,102624.13
2023-04-19T20:45:21.518Z,102611.78
2023-04-19T20:47:24.947Z,102617.06
2023-04-19T20:49:26.456Z,102620.63
2023-04-19T20:51:27.999Z,102610.94
2023-04-19T20:53:29.514Z,102615.31
2023-04-19T20:55:31.101Z,102610.91
2023-04-19T20:57:32.562Z,102609.13
2023-04-19T20:59:34.106Z,102618.78
2023-04-19T21:01:35.681Z,102612.63
2023-04-19T21:03:37.377Z,102612.63
2023-04-19T21:05:38.998Z,102609.97
2023-04-19T21:07:40.612Z,102609.97
2023-04-19T21:09:42.070Z,102613.47
2023-04-19T21:11:43.587Z,102609.06
2023-04-19T21:13:45.149Z,102607.28
2023-04-19T21:15:46.755Z,102609.03
2023-04-19T21:17:48.269Z,102612.53
2023-04-19T21:19:49.806Z,102608.13
2023-04-19T21:21:51.353Z,102602.84
2023-04-19T21:23:52.853Z,102609.88
2023-04-19T21:25:54.378Z,102608.13
2023-04-19T21:27:55.840Z,102598.44
2023-04-19T21:29:57.315Z,102610.75
2023-04-19T21:31:58.823Z,102595.78
2023-04-19T21:34:00.422Z,102590.50
2023-04-19T21:36:02.258Z,102593.97
2023-04-19T21:38:04.026Z,102596.59
2023-04-19T21:40:06.594Z,102600.09
2023-04-19T21:42:08.103Z,102593.94
2023-04-19T21:44:09.580Z,102588.63
2023-04-19T21:46:11.051Z,102583.34
2023-04-19T21:48:12.543Z,102579.81
2023-04-19T21:50:14.042Z,102578.06
2023-04-19T21:52:15.510Z,102575.41
2023-04-19T21:54:26.702Z,102568.41
2023-04-19T21:56:34.645Z,102575.44
2023-04-19T21:58:36.385Z,102571.94
2023-04-19T22:00:37.840Z,102568.41
2023-04-19T22:02:39.489Z,102572.81
2023-04-19T22:04:41.600Z,102562.28
2023-04-19T22:06:46.040Z,102571.03
2023-04-19T22:08:48.375Z,102558.75
2023-04-19T22:10:50.487Z,102567.53
2023-04-19T22:12:58.438Z,102560.50
2023-04-19T22:15:01.378Z,102553.44
2023-04-19T22:17:03.196Z,102553.44
2023-04-19T22:19:04.720Z,102546.41
2023-04-19T22:21:06.459Z,102540.28
2023-04-19T22:23:07.974Z,102549.06
2023-04-19T22:25:10.055Z,102537.63
2023-04-19T22:27:11.612Z,102532.38
2023-04-19T22:29:13.067Z,102520.94
2023-04-19T22:31:14.787Z,102515.69
2023-04-19T22:33:16.260Z,102508.66
2023-04-19T22:35:17.821Z,102504.25
2023-04-19T22:37:19.426Z,102503.34
2023-04-19T22:39:21.110Z,102496.31
2023-04-19T22:41:22.556Z,102496.31
2023-04-19T22:43:24.476Z,102490.16
2023-04-19T22:45:26.174Z,102482.22
2023-04-19T22:47:27.648Z,102475.19
2023-04-19T22:49:29.821Z,102473.41
2023-04-19T22:51:31.350Z,102457.63
2023-04-19T22:53:32.990Z,102449.72
2023-04-19T22:55:34.459Z,102448.84
2023-04-19T22:57:35.899Z,102446.19
2023-04-19T22:59:37.492Z,102442.66
2023-04-19T23:01:39.521Z,102447.91
2023-04-19T23:03:41.051Z,102435.59
2023-04-19T23:05:42.568Z,102435.59
2023-04-19T23:07:45.187Z,102432.06
2023-04-19T23:09:47.046Z,102425.94
2023-04-19T23:11:48.792Z,102421.53
2023-04-19T23:13:52.808Z,102423.28
2023-04-19T23:15:54.525Z,102417.13
2023-04-19T23:17:56.625Z,102414.53
2023-04-19T23:19:58.173Z,102425.06
2023-04-19T23:21:59.616Z,102423.31
2023-04-19T23:24:01.118Z,102425.06
2023-04-19T23:26:02.693Z,102405.78
2023-04-19T23:28:04.244Z,102415.44
2023-04-19T23:30:07.682Z,102409.28
2023-04-19T23:32:09.150Z,102433.00
2023-04-19T23:34:10.733Z,102417.22
2023-04-19T23:36:12.239Z,102419.84